createdAt,value
2017-04-03T07:01:17.149Z,6980
2017-04-03T07:02:17.526Z,7200
2017-04-03T07:03:17.525Z,7384
2017-04-03T07:04:17.289Z,7664
2017-04-03T07:05:17.298Z,8052
2017-04-03T07:06:17.961Z,8512
2017-04-03T07:07:17.675Z,8748
2017-04-03T07:08:18.022Z,8976
2017-04-03T07:09:17.447Z,9236
2017-04-03T07:10:17.805Z,9588
2017-04-03T07:11:17.836Z,10036
2017-04-03T07:12:17.875Z,10640
2017-04-03T07:13:17.911Z,11628
2017-04-03T07:14:17.639Z,11916
2017-04-03T07:15:17.986Z,12436
2017-04-03T07:16:18.033Z,13400
2017-04-03T07:17:17.765Z,13100
2017-04-03T07:18:18.107Z,15120
2017-04-03T07:19:18.138Z,15692
2017-04-03T07:20:17.879Z,14852
2017-04-03T07:21:17.912Z,18048
2017-04-03T07:22:17.957Z,22880
2017-04-03T07:23:17.990Z,21216
2017-04-03T07:24:18.027Z,22080
2017-04-03T07:25:18.373Z,23936
2017-04-03T07:26:18.415Z,19936
2017-04-03T07:27:18.151Z,17856
2017-04-03T07:28:18.190Z,17248
2017-04-03T07:29:18.624Z,16960
2017-04-03T07:30:18.571Z,16064
2017-04-03T07:31:18.358Z,12516
2017-04-03T07:32:19.009Z,10056
2017-04-03T07:33:18.700Z,9008
2017-04-03T07:34:18.744Z,8672
2017-04-03T07:35:18.775Z,8520
2017-04-03T07:36:18.814Z,8372
2017-04-03T07:37:18.855Z,8236
2017-04-03T07:38:18.591Z,8100
2017-04-03T07:39:18.933Z,7776
2017-04-03T07:40:18.978Z,7444
2017-04-03T07:41:18.720Z,6992
2017-04-03T07:42:19.362Z,6388
2017-04-03T07:43:18.792Z,5864
2017-04-03T07:44:19.494Z,5516
2017-04-03T07:45:19.172Z,5344
2017-04-03T07:46:18.913Z,5232
2017-04-03T07:47:18.963Z,5152
2017-04-03T07:48:18.991Z,5060
2017-04-03T07:49:19.028Z,5032
2017-04-03T07:50:19.069Z,5108
2017-04-03T07:51:19.110Z,5388
2017-04-03T07:52:19.445Z,5952
2017-04-03T07:53:19.194Z,6848
2017-04-03T07:54:19.539Z,7876
2017-04-03T07:55:19.566Z,9144
2017-04-03T07:56:19.315Z,10540
2017-04-03T07:57:19.339Z,12044
2017-04-03T07:58:19.714Z,13912
2017-04-03T07:59:19.725Z,16480
2017-04-03T08:00:19.760Z,22752
2017-04-03T08:01:19.509Z,23808
2017-04-03T08:02:19.548Z,25984
2017-04-03T08:03:19.883Z,21664
2017-04-03T08:04:19.917Z,18880
2017-04-03T08:05:20.400Z,18528
2017-04-03T08:06:19.704Z,12412
2017-04-03T08:07:20.036Z,9792
2017-04-03T08:08:19.789Z,8496
2017-04-03T08:09:20.115Z,7944
2017-04-03T08:10:20.462Z,7960
2017-04-03T08:11:20.207Z,8704
2017-04-03T08:12:20.138Z,10084
2017-04-03T08:13:20.282Z,12076
2017-04-03T08:14:20.017Z,14312
2017-04-03T08:15:20.452Z,16864
2017-04-03T08:16:20.400Z,24192
2017-04-03T08:17:20.433Z,20064
2017-04-03T08:18:20.792Z,19200
2017-04-03T08:19:20.211Z,23232
2017-04-03T08:20:20.277Z,23776
2017-04-03T08:21:20.303Z,35296
2017-04-03T08:22:20.646Z,23072
2017-04-03T08:23:20.412Z,36800
2017-04-03T08:24:20.735Z,23072
2017-04-03T08:25:21.076Z,23904
2017-04-03T08:26:21.114Z,22880
2017-04-03T08:27:20.553Z,26016
2017-04-03T08:28:20.607Z,27488
2017-04-03T08:29:20.939Z,46720
2017-04-03T08:30:20.678Z,29600
2017-04-03T08:31:20.714Z,41024
2017-04-03T08:32:21.142Z,23392
2017-04-03T08:33:21.106Z,22624
2017-04-03T08:34:21.156Z,33312
2017-04-03T08:35:21.190Z,32512
2017-04-03T08:36:21.235Z,28416
2017-04-03T08:37:20.975Z,24640
2017-04-03T08:38:21.017Z,40992
2017-04-03T08:39:21.363Z,25184
2017-04-03T08:40:21.408Z,39424
2017-04-03T08:41:21.150Z,41472
2017-04-03T08:42:21.187Z,48832
2017-04-03T08:43:21.241Z,25600
2017-04-03T08:44:21.277Z,24160
2017-04-03T08:45:21.319Z,22304
2017-04-03T08:46:21.680Z,20800
2017-04-03T08:47:21.414Z,24640
2017-04-03T08:48:21.769Z,18400
2017-04-03T08:49:21.535Z,16800
2017-04-03T08:50:22.192Z,17472
2017-04-03T08:51:21.650Z,14740
2017-04-03T08:52:21.931Z,13004
2017-04-03T08:53:22.286Z,11924
2017-04-03T08:54:21.769Z,11268
2017-04-03T08:55:21.767Z,10880
2017-04-03T08:56:22.121Z,10584
2017-04-03T08:57:22.166Z,9904
2017-04-03T08:58:22.623Z,9288
2017-04-03T08:59:22.428Z,8816
2017-04-03T09:00:22.031Z,8672
2017-04-03T09:01:22.319Z,9044
2017-04-03T09:02:22.062Z,10068
2017-04-03T09:03:22.094Z,11492
2017-04-03T09:04:22.454Z,12664
2017-04-03T09:05:22.195Z,13304
2017-04-03T09:06:22.229Z,13756
2017-04-03T09:07:22.268Z,14156
2017-04-03T09:08:22.306Z,14292
2017-04-03T09:09:22.367Z,16608
2017-04-03T09:10:22.392Z,17216
2017-04-03T09:11:22.458Z,20736
2017-04-03T09:12:22.472Z,21792
2017-04-03T09:13:22.522Z,20288
2017-04-03T09:14:22.565Z,21568
2017-04-03T09:15:22.609Z,22496
2017-04-03T09:16:22.643Z,22784
2017-04-03T09:17:22.683Z,28512
2017-04-03T09:18:22.723Z,24032
2017-04-03T09:19:23.113Z,22912
2017-04-03T09:20:22.818Z,25568
2017-04-03T09:21:23.153Z,29536
2017-04-03T09:22:23.193Z,53184
2017-04-03T09:23:23.549Z,61280
2017-04-03T09:24:23.006Z,61088
2017-04-03T09:25:23.641Z,44704
2017-04-03T09:26:23.367Z,46144
2017-04-03T09:27:23.112Z,41632
2017-04-03T09:28:23.175Z,31232
2017-04-03T09:29:23.513Z,26496
2017-04-03T09:30:23.583Z,23072
2017-04-03T09:31:23.301Z,20928
2017-04-03T09:32:23.959Z,19040
2017-04-03T09:33:23.714Z,17728
2017-04-03T09:34:23.423Z,19104
2017-04-03T09:35:23.473Z,21312
2017-04-03T09:36:23.521Z,29984
2017-04-03T09:37:23.571Z,25216
2017-04-03T09:38:23.913Z,26208
2017-04-03T09:39:23.651Z,31488
2017-04-03T09:40:23.999Z,33600
2017-04-03T09:41:23.742Z,37312
2017-04-03T09:42:23.788Z,56800
2017-04-03T09:43:24.133Z,43168
2017-04-03T09:44:24.183Z,26912
2017-04-03T09:45:24.526Z,28352
2017-04-03T09:46:23.970Z,29984
2017-04-03T09:47:24.019Z,32640
2017-04-03T09:48:24.117Z,30528
2017-04-03T09:49:24.488Z,35232
2017-04-03T09:50:24.146Z,40320
2017-04-03T09:51:24.213Z,31840
2017-04-03T09:52:24.239Z,37184
2017-04-03T09:53:24.294Z,44320
2017-04-03T09:54:25.052Z,61824
2017-04-03T09:55:24.385Z,63648
2017-04-03T09:56:24.727Z,65632
2017-04-03T09:57:24.771Z,40672
2017-04-03T09:58:24.820Z,69760
2017-04-03T09:59:24.864Z,51200
2017-04-03T10:00:24.930Z,60480
2017-04-03T10:01:24.982Z,47872
2017-04-03T10:02:25.073Z,49856
2017-04-03T10:03:25.073Z,54752
2017-04-03T10:04:24.822Z,59904
2017-04-03T10:05:24.854Z,53632
2017-04-03T10:06:25.518Z,64960
2017-04-03T10:07:25.288Z,31936
2017-04-03T10:08:25.005Z,31072
2017-04-03T10:09:25.058Z,35104
2017-04-03T10:10:25.417Z,26592
2017-04-03T10:11:25.157Z,25440
2017-04-03T10:12:25.509Z,28608
2017-04-03T10:13:25.872Z,37056
2017-04-03T10:14:25.307Z,23584
2017-04-03T10:15:25.673Z,21120
2017-04-03T10:16:26.096Z,19840
2017-04-03T10:17:25.769Z,20032
2017-04-03T10:18:25.810Z,21920
2017-04-03T10:19:25.855Z,22912
2017-04-03T10:20:25.907Z,26944
2017-04-03T10:21:25.651Z,33600
2017-04-03T10:22:26.113Z,48928
2017-04-03T10:23:26.060Z,49056
2017-04-03T10:24:25.789Z,37568
2017-04-03T10:25:25.853Z,34496
2017-04-03T10:26:25.916Z,53632
2017-04-03T10:27:25.935Z,50048
2017-04-03T10:28:26.015Z,63744
2017-04-03T10:29:26.042Z,45152
2017-04-03T10:30:26.109Z,27680
2017-04-03T10:31:26.441Z,56128
2017-04-03T10:32:26.172Z,62400
2017-04-03T10:33:26.523Z,59712
2017-04-03T10:34:26.579Z,52224
2017-04-03T10:35:26.935Z,24960
2017-04-03T10:36:26.370Z,20640
2017-04-03T10:37:26.426Z,40352
2017-04-03T10:38:27.081Z,48640
2017-04-03T10:39:27.122Z,55904
2017-04-03T10:40:26.567Z,40672
2017-04-03T10:41:26.621Z,58176
2017-04-03T10:42:26.736Z,44384
2017-04-03T10:43:26.733Z,48000
2017-04-03T10:44:26.760Z,28160
2017-04-03T10:45:26.820Z,26208
2017-04-03T10:46:26.864Z,27040
2017-04-03T10:47:26.907Z,24864
2017-04-03T10:48:26.965Z,26880
2017-04-03T10:49:27.322Z,54880
2017-04-03T10:50:27.078Z,37120
2017-04-03T10:51:27.153Z,41376
2017-04-03T10:52:27.466Z,35392
2017-04-03T10:53:27.822Z,39072
2017-04-03T10:54:27.259Z,59808
2017-04-03T10:55:27.307Z,69632
2017-04-03T10:56:27.654Z,64576
2017-04-03T10:57:27.391Z,59488
2017-04-03T10:58:27.442Z,57728
2017-04-03T10:59:27.805Z,42304
2017-04-03T11:00:27.853Z,39264
2017-04-03T11:01:27.891Z,27136
2017-04-03T11:02:27.648Z,24960
2017-04-03T11:03:27.687Z,23104
2017-04-03T11:04:28.045Z,34336
2017-04-03T11:05:27.783Z,31968
2017-04-03T11:06:27.842Z,45472
2017-04-03T11:07:28.182Z,20064
2017-04-03T11:08:27.930Z,17728
2017-04-03T11:09:27.989Z,16576
2017-04-03T11:10:28.043Z,17472
2017-04-03T11:11:28.077Z,33120
2017-04-03T11:12:28.428Z,44608
2017-04-03T11:13:28.505Z,51296
2017-04-03T11:14:28.213Z,59264
2017-04-03T11:15:28.559Z,58272
2017-04-03T11:16:28.335Z,59520
2017-04-03T11:17:28.349Z,63040
2017-04-03T11:18:28.411Z,64512
2017-04-03T11:19:28.452Z,65984
2017-04-03T11:20:28.806Z,63264
2017-04-03T11:21:28.543Z,66016
2017-04-03T11:22:28.628Z,63136
2017-04-03T11:23:28.941Z,40000
2017-04-03T11:24:28.684Z,52800
2017-04-03T11:25:29.029Z,30880
2017-04-03T11:26:28.779Z,52928
2017-04-03T11:27:29.142Z,58208
2017-04-03T11:28:29.480Z,41664
2017-04-03T11:29:28.921Z,70912
2017-04-03T11:30:29.275Z,58048
2017-04-03T11:31:29.325Z,19520
2017-04-03T11:32:29.071Z,17792
2017-04-03T11:33:29.400Z,22688
2017-04-03T11:34:29.459Z,21408
2017-04-03T11:35:29.201Z,16952
2017-04-03T11:36:29.239Z,16364
2017-04-03T11:37:29.603Z,18624
2017-04-03T11:38:29.339Z,18176
2017-04-03T11:39:29.694Z,17888
2017-04-03T11:40:29.732Z,17440
2017-04-03T11:41:29.465Z,18752
2017-04-03T11:42:30.123Z,19520
2017-04-03T11:43:29.558Z,16984
2017-04-03T11:44:29.601Z,16320
2017-04-03T11:45:30.251Z,16640
2017-04-03T11:46:29.692Z,15248
2017-04-03T11:47:29.764Z,14364
2017-04-03T11:48:30.091Z,14000
2017-04-03T11:49:30.289Z,13912
2017-04-03T11:50:29.869Z,12936
2017-04-03T11:51:29.911Z,12652
2017-04-03T11:52:30.260Z,12656
2017-04-03T11:53:30.001Z,12524
2017-04-03T11:54:30.355Z,12744
2017-04-03T11:55:30.095Z,13092
2017-04-03T11:56:30.129Z,12720
2017-04-03T11:57:30.794Z,12392
2017-04-03T11:58:30.215Z,12124
2017-04-03T11:59:30.283Z,12004
2017-04-03T12:00:30.617Z,11920
2017-04-03T12:01:30.654Z,11732
2017-04-03T12:02:30.384Z,11728
2017-04-03T12:03:30.449Z,11544
2017-04-03T12:04:30.482Z,11504
2017-04-03T12:05:30.824Z,11364
2017-04-03T12:06:30.873Z,11108
2017-04-03T12:07:30.717Z,10768
2017-04-03T12:08:30.960Z,10436
2017-04-03T12:09:30.990Z,10288
2017-04-03T12:10:31.032Z,10184
2017-04-03T12:11:30.776Z,9932
2017-04-03T12:12:31.120Z,9888
2017-04-03T12:13:30.859Z,9704
2017-04-03T12:14:30.916Z,9456
2017-04-03T12:15:30.950Z,9156
2017-04-03T12:16:30.985Z,9036
2017-04-03T12:17:31.653Z,9048
2017-04-03T12:18:31.068Z,8864
2017-04-03T12:19:31.436Z,8816
2017-04-03T12:20:31.163Z,8784
2017-04-03T12:21:31.204Z,8692
2017-04-03T12:22:31.246Z,8572
2017-04-03T12:23:31.294Z,8520
2017-04-03T12:24:31.626Z,8520
2017-04-03T12:25:31.679Z,8484
2017-04-03T12:26:31.413Z,8332
2017-04-03T12:27:31.760Z,8288
2017-04-03T12:28:31.496Z,8112
2017-04-03T12:29:31.833Z,8024
2017-04-03T12:30:31.579Z,7988
2017-04-03T12:31:31.623Z,8060
2017-04-03T12:32:31.658Z,8012
2017-04-03T12:33:32.367Z,8084
2017-04-03T12:34:32.039Z,8148
2017-04-03T12:35:31.786Z,8216
2017-04-03T12:36:31.822Z,8188
2017-04-03T12:37:32.170Z,8072
2017-04-03T12:38:32.217Z,7976
2017-04-03T12:39:31.943Z,7916
2017-04-03T12:40:31.993Z,7932
2017-04-03T12:41:32.039Z,7876
2017-04-03T12:42:32.067Z,7992
2017-04-03T12:43:32.121Z,7708
2017-04-03T12:44:32.753Z,7476
2017-04-03T12:45:32.810Z,7296
2017-04-03T12:46:32.850Z,7136
2017-04-03T12:47:32.314Z,7024
2017-04-03T12:48:32.630Z,6960
2017-04-03T12:49:32.668Z,6944
2017-04-03T12:50:32.715Z,6748
2017-04-03T12:51:32.432Z,6636
2017-04-03T12:52:32.492Z,6600
2017-04-03T12:53:32.530Z,6504
2017-04-03T12:54:33.173Z,6448
2017-04-03T12:55:32.921Z,6348
2017-04-03T12:56:32.939Z,6244
2017-04-03T12:57:33.327Z,6100
2017-04-03T12:58:32.736Z,6012
2017-04-03T12:59:33.147Z,6000
2017-04-03T13:00:33.104Z,5964
2017-04-03T13:01:32.838Z,5916
2017-04-03T13:02:32.883Z,5916
2017-04-03T13:03:32.998Z,5828
2017-04-03T13:04:32.963Z,5796
2017-04-03T13:05:33.316Z,5744
2017-04-03T13:06:33.051Z,5756
2017-04-03T13:07:33.091Z,5804
2017-04-03T13:08:33.728Z,5920
2017-04-03T13:09:33.164Z,5964
2017-04-03T13:10:33.222Z,6156
2017-04-03T13:11:33.255Z,6624
2017-04-03T13:12:33.404Z,6524
2017-04-03T13:13:33.735Z,6240
2017-04-03T13:14:33.675Z,6028
2017-04-03T13:15:33.410Z,5980
2017-04-03T13:16:33.752Z,5912
2017-04-03T13:17:33.790Z,5932
2017-04-03T13:18:33.829Z,6548
2017-04-03T13:19:33.569Z,6092
2017-04-03T13:20:33.612Z,5772
2017-04-03T13:21:33.955Z,5792
2017-04-03T13:22:33.688Z,6208
2017-04-03T13:23:34.332Z,6552
2017-04-03T13:24:33.774Z,5960
2017-04-03T13:25:33.812Z,6364
2017-04-03T13:26:33.847Z,6876
2017-04-03T13:27:33.902Z,7036
2017-04-03T13:28:33.938Z,6644
2017-04-03T13:29:34.285Z,6588
2017-04-03T13:30:34.324Z,6444
2017-04-03T13:31:34.195Z,5840
2017-04-03T13:32:34.102Z,5752
2017-04-03T13:33:34.137Z,6560
2017-04-03T13:34:34.479Z,7724
2017-04-03T13:35:34.221Z,8196
2017-04-03T13:36:34.568Z,8580
2017-04-03T13:37:34.594Z,7968
2017-04-03T13:38:34.632Z,6736
2017-04-03T13:39:34.387Z,6048
2017-04-03T13:40:34.425Z,6196
2017-04-03T13:41:34.757Z,5736
2017-04-03T13:42:34.501Z,5644
2017-04-03T13:43:35.229Z,5144
2017-04-03T13:44:34.911Z,5472
2017-04-03T13:45:34.628Z,5708
2017-04-03T13:46:34.679Z,6760
2017-04-03T13:47:34.729Z,6612
2017-04-03T13:48:34.789Z,5756
2017-04-03T13:49:34.781Z,4992
2017-04-03T13:50:35.135Z,4816
2017-04-03T13:51:35.174Z,5120
2017-04-03T13:52:34.894Z,5008
2017-04-03T13:53:35.239Z,4620
2017-04-03T13:54:35.148Z,4792
2017-04-03T13:55:35.014Z,5048
2017-04-03T13:56:35.054Z,5224
2017-04-03T13:57:35.099Z,5156
2017-04-03T13:58:35.440Z,5900
2017-04-03T13:59:35.171Z,5820
2017-04-03T14:00:35.229Z,5248
2017-04-03T14:01:35.874Z,4876
2017-04-03T14:02:35.608Z,5000
2017-04-03T14:03:35.346Z,4948
2017-04-03T14:04:35.393Z,4620
2017-04-03T14:05:35.415Z,4332
2017-04-03T14:06:35.455Z,4524
2017-04-03T14:07:35.496Z,4516
2017-04-03T14:08:35.850Z,4368
2017-04-03T14:09:35.894Z,4348
2017-04-03T14:10:36.230Z,4560
2017-04-03T14:11:35.665Z,4352
2017-04-03T14:12:35.694Z,4412
2017-04-03T14:13:35.750Z,4272
2017-04-03T14:14:36.099Z,4236
2017-04-03T14:15:36.119Z,4272
2017-04-03T14:16:36.171Z,4436
2017-04-03T14:17:36.198Z,4228
2017-04-03T14:18:35.970Z,4064
2017-04-03T14:19:36.032Z,4128
2017-04-03T14:20:36.077Z,4160
2017-04-03T14:21:36.060Z,4060
2017-04-03T14:22:36.404Z,4104
2017-04-03T14:23:36.152Z,4028
2017-04-03T14:24:36.488Z,4136
2017-04-03T14:25:36.831Z,3960
2017-04-03T14:26:36.297Z,4108
2017-04-03T14:27:36.347Z,3852
2017-04-03T14:28:36.342Z,3860
2017-04-03T14:29:36.716Z,4136
2017-04-03T14:30:36.730Z,4312
2017-04-03T14:31:36.464Z,4100
2017-04-03T14:32:36.501Z,3952
2017-04-03T14:33:36.546Z,3872
2017-04-03T14:34:36.588Z,3712
2017-04-03T14:35:36.621Z,3796
2017-04-03T14:36:36.975Z,3804
2017-04-03T14:37:36.706Z,3792
2017-04-03T14:38:36.730Z,3844
2017-04-03T14:39:36.770Z,3664
2017-04-03T14:40:36.829Z,3556
2017-04-03T14:41:36.859Z,3504
2017-04-03T14:42:36.901Z,3544
2017-04-03T14:43:36.936Z,3712
2017-04-03T14:44:36.980Z,3592
2017-04-03T14:45:37.016Z,3600
2017-04-03T14:46:37.263Z,3660
2017-04-03T14:47:37.094Z,3632
2017-04-03T14:48:37.739Z,3704
2017-04-03T14:49:37.480Z,3892
2017-04-03T14:50:37.211Z,3892
2017-04-03T14:51:37.259Z,3904
2017-04-03T14:52:37.299Z,3900
2017-04-03T14:53:37.627Z,3884
2017-04-03T14:54:37.681Z,3940
2017-04-03T14:55:37.721Z,3952
2017-04-03T14:56:37.441Z,3860
2017-04-03T14:57:37.488Z,3832
2017-04-03T14:58:38.142Z,3804
2017-04-03T14:59:37.873Z,3780
2017-04-03T15:00:37.612Z,3780
2017-04-03T15:01:37.650Z,3752
2017-04-03T15:02:37.686Z,3804
2017-04-03T15:03:38.332Z,3884
2017-04-03T15:04:38.069Z,4068
2017-04-03T15:05:37.814Z,4228
2017-04-03T15:06:37.848Z,4348
2017-04-03T15:07:37.888Z,4408
2017-04-03T15:08:38.228Z,4436
2017-04-03T15:09:37.957Z,4420
2017-04-03T15:10:38.013Z,4364
2017-04-03T15:11:38.056Z,4292
2017-04-03T15:12:38.697Z,4308
2017-04-03T15:13:38.117Z,4440
2017-04-03T15:14:38.160Z,4316
2017-04-03T15:15:38.510Z,4320
2017-04-03T15:16:38.249Z,4460
2017-04-03T15:17:38.583Z,4676
2017-04-03T15:18:38.345Z,5352
2017-04-03T15:19:38.971Z,5648
2017-04-03T15:20:38.437Z,5460
2017-04-03T15:21:38.435Z,5052
2017-04-03T15:22:38.480Z,4528
2017-04-03T15:23:38.520Z,4624
2017-04-03T15:24:38.561Z,5296
2017-04-03T15:25:38.591Z,5220
2017-04-03T15:26:38.938Z,4780
2017-04-03T15:27:38.972Z,4532
2017-04-03T15:28:39.313Z,4732
2017-04-03T15:29:39.353Z,4868
2017-04-03T15:30:39.100Z,4948
2017-04-03T15:31:39.134Z,5028
2017-04-03T15:32:38.871Z,4836
2017-04-03T15:33:38.916Z,4888
2017-04-03T15:34:39.254Z,4896
2017-04-03T15:35:45.686Z,4668
2017-04-03T15:36:39.034Z,4376
2017-04-03T15:37:39.669Z,4020
2017-04-03T15:38:39.414Z,3816
2017-04-03T15:39:39.452Z,3828
2017-04-03T15:40:39.183Z,3872
2017-04-03T15:41:39.535Z,3756
2017-04-03T15:42:39.272Z,3504
2017-04-03T15:43:39.310Z,3312
2017-04-03T15:44:39.944Z,3276
2017-04-03T15:45:39.992Z,3292
2017-04-03T15:46:39.720Z,3252
2017-04-03T15:47:39.477Z,3148
2017-04-03T15:48:39.811Z,2992
2017-04-03T15:49:40.461Z,2832
2017-04-03T15:50:39.584Z,2748
2017-04-03T15:51:39.627Z,2728
2017-04-03T15:52:39.956Z,2780
2017-04-03T15:53:39.693Z,2868
2017-04-03T15:54:39.744Z,2852
2017-04-03T15:55:39.777Z,2744
2017-04-03T15:56:40.112Z,2624
2017-04-03T15:57:39.860Z,2552
2017-04-03T15:58:40.495Z,2528
2017-04-03T15:59:39.938Z,2524
2017-04-03T16:00:39.973Z,2508
2017-04-03T16:01:40.309Z,2476
2017-04-03T16:02:40.051Z,2456
2017-04-03T16:03:40.085Z,2468
2017-04-03T16:04:40.730Z,2480
2017-04-03T16:05:40.177Z,2496
2017-04-03T16:06:40.506Z,2524
2017-04-03T16:07:40.243Z,2556
2017-04-03T16:08:40.586Z,2664
2017-04-03T16:09:40.323Z,2844
2017-04-03T16:10:40.393Z,3004
2017-04-03T16:11:40.709Z,2944
2017-04-03T16:12:40.440Z,2808
2017-04-03T16:13:40.776Z,2648
2017-04-03T16:14:40.515Z,2516
2017-04-03T16:15:40.615Z,2424
2017-04-03T16:16:40.831Z,2400
2017-04-03T16:17:40.945Z,2428
2017-04-03T16:18:40.678Z,2520
2017-04-03T16:19:40.713Z,2660
2017-04-03T16:20:41.054Z,2752
2017-04-03T16:21:40.801Z,2768
2017-04-03T16:22:41.143Z,2708
2017-04-03T16:23:40.867Z,2588
2017-04-03T16:24:40.916Z,2424
2017-04-03T16:25:41.256Z,2296
2017-04-03T16:26:40.990Z,2212
2017-04-03T16:27:41.321Z,2192
2017-04-03T16:28:41.058Z,2148
2017-04-03T16:29:41.401Z,2072
2017-04-03T16:30:41.137Z,1956
2017-04-03T16:31:41.473Z,1860
2017-04-03T16:32:41.223Z,1836
2017-04-03T16:33:41.262Z,1872
2017-04-03T16:34:41.303Z,1892
2017-04-03T16:35:41.645Z,1892
2017-04-03T16:36:41.369Z,1880
2017-04-03T16:37:41.727Z,1824
2017-04-03T16:38:41.444Z,1752
2017-04-03T16:39:41.493Z,1696
2017-04-03T16:40:41.837Z,1644
2017-04-03T16:41:41.616Z,1612
2017-04-03T16:42:41.904Z,1580
2017-04-03T16:43:41.644Z,1528
2017-04-03T16:44:41.681Z,1468
2017-04-03T16:45:42.021Z,1404
2017-04-03T16:46:41.773Z,1368
2017-04-03T16:47:41.798Z,1336
2017-04-03T16:48:41.832Z,1296
2017-04-03T16:49:42.184Z,1260
2017-04-03T16:50:42.210Z,1244
2017-04-03T16:51:41.960Z,1224
2017-04-03T16:52:42.006Z,1200
2017-04-03T16:53:42.040Z,1168
2017-04-03T16:54:42.062Z,1128
2017-04-03T16:55:42.416Z,1088
2017-04-03T16:56:42.145Z,1048
2017-04-03T16:57:42.493Z,1004
2017-04-03T16:58:42.224Z,956
2017-04-03T16:59:42.264Z,912
2017-04-03T17:00:42.599Z,880
2017-04-03T17:01:42.335Z,856
2017-04-03T17:02:42.372Z,840
2017-04-03T17:03:42.413Z,820
2017-04-03T17:04:42.459Z,780
2017-04-03T17:05:42.496Z,716
2017-04-03T17:06:42.828Z,644
2017-04-03T17:07:42.880Z,576
2017-04-03T17:08:42.919Z,524
2017-04-03T17:09:42.654Z,484
2017-04-03T17:10:42.997Z,452
2017-04-03T17:11:43.024Z,428
2017-04-03T17:12:42.767Z,400
2017-04-03T17:13:43.110Z,380
2017-04-03T17:14:42.839Z,360
2017-04-03T17:15:43.184Z,340
2017-04-03T17:16:43.218Z,320
2017-04-03T17:17:42.950Z,300
2017-04-03T17:18:42.996Z,284
2017-04-03T17:19:43.335Z,268
2017-04-03T17:20:43.675Z,256
2017-04-03T17:21:43.405Z,244
2017-04-03T17:22:43.439Z,236
2017-04-03T17:23:43.478Z,232
2017-04-03T17:24:43.542Z,228
2017-04-03T17:25:43.263Z,228
2017-04-03T17:26:43.302Z,228
2017-04-03T17:27:43.642Z,216
2017-04-03T17:28:43.365Z,208
2017-04-03T17:29:43.722Z,196
2017-04-03T17:30:43.483Z,180
2017-04-03T17:31:43.482Z,168
2017-04-03T17:32:43.529Z,156
2017-04-03T17:33:43.871Z,144
2017-04-03T17:34:43.604Z,136
2017-04-03T17:35:43.641Z,124
2017-04-03T17:36:43.674Z,116
2017-04-03T17:37:44.023Z,104
2017-04-03T17:38:44.047Z,96
2017-04-03T17:39:43.787Z,88
2017-04-03T17:40:43.826Z,80
2017-04-03T17:41:44.461Z,72
2017-04-03T17:42:43.911Z,68
2017-04-03T17:43:44.240Z,60
2017-04-03T17:44:44.302Z,56
2017-04-03T17:45:44.013Z,52
2017-04-03T17:46:44.059Z,48
2017-04-03T17:47:44.111Z,44
2017-04-03T17:48:44.429Z,40
2017-04-03T17:49:44.474Z,36
2017-04-03T17:50:44.511Z,32
2017-04-03T17:51:44.551Z,28
2017-04-03T17:52:44.278Z,28
2017-04-03T17:53:44.326Z,24
2017-04-03T17:54:44.694Z,20
2017-04-03T17:55:44.758Z,16
2017-04-03T17:56:44.426Z,12
2017-04-03T17:57:44.780Z,12
2017-04-03T17:58:44.510Z,8
2017-04-03T17:59:44.553Z,8
2017-04-03T18:00:44.580Z,8
2017-04-03T18:01:44.619Z,8
2017-04-03T18:02:44.662Z,4
2017-04-03T18:03:44.713Z,4
2017-04-03T18:04:45.041Z,4
2017-04-03T18:05:44.779Z,4
2017-04-03T18:06:44.813Z,4
2017-04-03T18:07:45.153Z,4
2017-04-03T18:08:45.481Z,0
2017-04-03T18:09:45.230Z,4
2017-04-03T18:10:44.963Z,0
2017-04-03T18:11:45.595Z,0
2017-04-03T18:12:45.071Z,0
2017-04-03T18:13:45.066Z,0
2017-04-03T18:14:45.103Z,0
2017-04-03T18:15:45.468Z,0
2017-04-03T18:16:45.195Z,0
2017-04-03T18:17:45.222Z,0
2017-04-03T18:18:45.255Z,0
2017-04-03T18:19:45.299Z,0
2017-04-03T18:20:45.341Z,0
2017-04-03T18:21:45.670Z,0
2017-04-03T18:22:45.721Z,0
2017-04-03T18:23:45.698Z,0
2017-04-03T18:24:45.486Z,0
2017-04-03T18:25:45.824Z,0
2017-04-03T18:26:45.559Z,0
2017-04-03T18:27:45.604Z,0
2017-04-03T18:28:45.643Z,0
2017-04-03T18:29:45.673Z,0
2017-04-03T18:30:46.018Z,0
2017-04-03T18:31:45.743Z,0
2017-04-03T18:32:45.786Z,0
2017-04-03T18:33:45.832Z,0
2017-04-03T18:34:45.862Z,0
2017-04-03T18:35:45.911Z,0
2017-04-03T18:36:45.935Z,0
2017-04-03T18:37:45.977Z,0
2017-04-03T18:38:46.321Z,0
2017-04-03T18:39:46.045Z,0
2017-04-03T18:40:46.392Z,0
2017-04-03T18:41:46.130Z,0
2017-04-03T18:42:46.158Z,0
2017-04-03T18:43:46.207Z,0
2017-04-03T18:44:46.246Z,0
2017-04-03T18:45:46.287Z,0
2017-04-03T18:46:46.318Z,0
2017-04-03T18:47:46.352Z,0
2017-04-03T18:48:46.703Z,0
2017-04-03T18:49:46.431Z,0
2017-04-03T18:50:46.473Z,0
2017-04-03T18:51:46.507Z,0
2017-04-03T18:52:46.545Z,0
2017-04-03T18:53:46.876Z,0
2017-04-03T18:54:46.628Z,0
2017-04-03T18:55:46.661Z,0
2017-04-03T18:56:46.686Z,0
2017-04-03T18:57:46.730Z,0
2017-04-03T18:58:46.760Z,0
2017-04-03T18:59:47.101Z,0
2017-04-03T19:00:47.155Z,0
2017-04-03T19:01:46.876Z,0
2017-04-03T19:02:46.916Z,0
2017-04-03T19:03:47.172Z,0
2017-04-03T19:04:47.288Z,0
2017-04-03T19:05:47.038Z,0
2017-04-03T19:06:47.359Z,0
2017-04-03T19:07:47.399Z,0
2017-04-03T19:08:47.143Z,0
2017-04-03T19:09:47.476Z,0
2017-04-03T19:10:47.560Z,0
2017-04-03T19:11:47.572Z,0
2017-04-03T19:12:47.287Z,0
2017-04-03T19:13:47.636Z,0
2017-04-03T19:14:47.371Z,0
2017-04-03T19:15:47.399Z,0
2017-04-03T19:16:47.440Z,0
2017-04-03T19:17:48.074Z,0
2017-04-03T19:18:47.825Z,0
2017-04-03T19:19:48.168Z,0
2017-04-03T19:20:47.887Z,0
2017-04-03T19:21:48.532Z,0
2017-04-03T19:22:48.020Z,0
2017-04-03T19:23:48.010Z,0
2017-04-03T19:24:48.337Z,0
2017-04-03T19:25:48.077Z,0
2017-04-03T19:26:48.417Z,0
2017-04-03T19:27:48.163Z,0
2017-04-03T19:28:48.189Z,0
2017-04-03T19:29:48.025Z,0
2017-04-03T19:30:48.581Z,0
2017-04-03T19:31:48.652Z,0
2017-04-03T19:32:48.350Z,0
2017-04-03T19:33:48.687Z,0
2017-04-03T19:34:48.720Z,0
2017-04-03T19:35:48.464Z,0
2017-04-03T19:36:48.182Z,0
2017-04-03T19:37:48.219Z,0
2017-04-03T19:38:48.258Z,0
2017-04-03T19:39:48.290Z,0
2017-04-03T19:40:48.332Z,0
2017-04-03T19:41:48.382Z,0
2017-04-03T19:42:48.404Z,0
2017-04-03T19:43:48.494Z,0
2017-04-03T19:44:48.477Z,0
2017-04-03T19:45:48.527Z,0
2017-04-03T19:46:48.553Z,0
2017-04-03T19:47:48.589Z,0
2017-04-03T19:48:48.933Z,0
2017-04-03T19:49:48.679Z,0
2017-04-03T19:50:49.015Z,0
2017-04-03T19:51:49.539Z,0
2017-04-03T19:52:49.078Z,0
2017-04-03T19:53:48.815Z,0
2017-04-03T19:54:49.171Z,0
2017-04-03T19:55:48.958Z,0
2017-04-03T19:56:48.926Z,0
2017-04-03T19:57:48.966Z,0
2017-04-03T19:58:49.001Z,0
2017-04-03T19:59:49.090Z,0
2017-04-03T20:00:49.088Z,0
2017-04-03T20:01:49.175Z,0
2017-04-03T20:02:49.186Z,0
2017-04-03T20:03:49.528Z,0
2017-04-03T20:04:49.250Z,0
2017-04-03T20:05:49.269Z,0
2017-04-03T20:06:49.609Z,0
2017-04-03T20:07:49.976Z,0
2017-04-03T20:08:49.375Z,0
2017-04-03T20:09:49.408Z,0
2017-04-03T20:10:49.458Z,0
2017-04-03T20:11:49.482Z,0
2017-04-03T20:12:49.520Z,0
2017-04-03T20:13:49.563Z,0
2017-04-03T20:14:49.928Z,0
2017-04-03T20:15:49.641Z,0
2017-04-03T20:16:49.785Z,0
2017-04-03T20:17:50.014Z,0
2017-04-03T20:18:50.049Z,0
2017-04-03T20:19:49.794Z,0
2017-04-03T20:20:49.819Z,0
2017-04-03T20:21:50.484Z,0
2017-04-03T20:22:49.893Z,0
2017-04-03T20:23:49.938Z,0
2017-04-03T20:24:49.970Z,0
2017-04-03T20:25:50.009Z,0
2017-04-03T20:26:50.351Z,0
2017-04-03T20:27:50.080Z,0
2017-04-03T20:28:50.113Z,0